Portada
METAR-TAF:

METAR-TAF

Aeroports :

Locarno, Suïssa

latitud: 46-09-55N, longitud: 8-52-40E, altitud: 198 m

Observació

L'informe es va fer fa 37 minuts, a les 13:50 UTC
Vent 6 kt del Oest/Sud-Oest, variant entre Sud/Sud-Oest i Oest
Temperatura 26°C
Humitat 58%
Pressió 1013 hPa
Visibilitat 10 km o més
Escasses núvols a una alçada de 7000 ft

METAR: LSZL 161350Z 25006KT 210V280 9999 FEW070 26/17 Q1013 RMK BLU+

Hora: 16:27 (14:27 UTC)

Pronòstic

L'informe es va fer fa 3 hores i 2 minuts, a les 11:25 UTC
Pronòstic vàlid del 16 a les 12 UTC al 16 a les 21 UTC
Vent 5 kt del Oest/Sud-Oest
Visibilitat 10 km o més
sense núvols per sota de 1500 mi sense presència de cumulonimbus.
Temporalment
l' 16 a les 12 UTC al 16 a les 16 UTC
Visibilitat 10 km o més
Escasses núvols a una alçada de 5000 ft

TAF: LSZL 161125Z 1612/1621 24005KT CAVOK TEMPO 1612/1616 9999 FEW050

Observacions i pronòstics meteorològics de més de 4000 aeroports (METAR i TAF).

Les estacions disponibles són els punts grocs i vermells al mapa.

Posi el ratolí al punt desitjat per veure el nom de l'estació.

Feu clic per veure les observacions i els pronòstics meteorològics.

Per canviar el mapa: feu clic els botons verds amb una creu de color negre per apropar; al botó verd amb un guió per allunyar la imatge; o en les fletxes verdes per a mapes adjacents.


METAR-TAF: